createdAt,value
2022-12-28T00:01:11.842Z,101646.91
2022-12-28T00:03:38.950Z,101652.94
2022-12-28T00:06:07.486Z,101652.75
2022-12-28T00:08:34.464Z,101661.75
2022-12-28T00:11:07.864Z,101669.16
2022-12-28T00:13:36.479Z,101673.03
2022-12-28T00:16:12.098Z,101667.31
2022-12-28T00:18:39.049Z,101694.59
2022-12-28T00:21:06.230Z,101700.50
2022-12-28T00:23:33.194Z,101693.91
2022-12-28T00:26:11.837Z,101695.31
2022-12-28T00:28:39.402Z,101701.44
2022-12-28T00:31:07.085Z,101711.06
2022-12-28T00:33:34.158Z,101721.00
2022-12-28T00:36:02.300Z,101720.25
2022-12-28T00:38:33.483Z,101722.47
2022-12-28T00:41:03.028Z,101721.72
2022-12-28T00:43:30.321Z,101726.97
2022-12-28T00:45:59.592Z,101727.84
2022-12-28T00:48:26.512Z,101735.00
2022-12-28T00:50:53.583Z,101729.50
2022-12-28T00:53:20.686Z,101733.91
2022-12-28T00:55:50.946Z,101729.50
2022-12-28T00:58:17.875Z,101730.34
2022-12-28T01:00:44.741Z,101718.78
2022-12-28T01:03:11.589Z,101721.25
2022-12-28T01:05:40.014Z,101725.09
2022-12-28T01:08:08.494Z,101735.56
2022-12-28T01:10:35.409Z,101739.66
2022-12-28T01:13:02.237Z,101748.41
2022-12-28T01:15:29.165Z,101752.75
2022-12-28T01:17:56.117Z,101754.13
2022-12-28T01:20:23.012Z,101782.34
2022-12-28T01:22:49.933Z,101781.19
2022-12-28T01:25:17.009Z,101794.34
2022-12-28T01:27:43.978Z,101809.41
2022-12-28T01:30:13.780Z,101813.59
2022-12-28T01:32:40.813Z,101827.56
2022-12-28T01:35:08.277Z,101822.94
2022-12-28T01:37:35.941Z,101813.63
2022-12-28T01:40:02.858Z,101818.56
2022-12-28T01:42:29.666Z,101813.97
2022-12-28T01:44:56.520Z,101818.06
2022-12-28T01:47:31.781Z,101828.75
2022-12-28T01:50:03.384Z,101832.00
2022-12-28T01:52:32.790Z,101844.59
2022-12-28T01:55:14.160Z,101835.03
2022-12-28T01:57:51.427Z,101837.41
2022-12-28T02:00:18.553Z,101850.88
2022-12-28T02:02:52.578Z,101840.72
2022-12-28T02:05:20.464Z,101834.44
2022-12-28T02:07:57.610Z,101834.69
2022-12-28T02:10:41.233Z,101826.41
2022-12-28T02:13:12.744Z,101826.88
2022-12-28T02:15:39.638Z,101831.03
2022-12-28T02:18:06.741Z,101837.88
2022-12-28T02:21:15.043Z,101834.47
2022-12-28T02:24:09.158Z,101833.88
2022-12-28T02:27:14.775Z,101836.88
2022-12-28T02:29:53.454Z,101827.63
2022-12-28T02:32:57.840Z,101837.88
2022-12-28T02:35:25.730Z,101840.03
2022-12-28T02:38:05.840Z,101829.50
2022-12-28T02:40:42.558Z,101848.88
2022-12-28T02:43:09.845Z,101848.78
2022-12-28T02:46:01.552Z,101854.56
2022-12-28T02:48:47.330Z,101864.88
2022-12-28T02:51:55.625Z,101856.91
2022-12-28T02:54:42.708Z,101852.97
2022-12-28T02:57:42.733Z,101869.25
2022-12-28T03:00:15.657Z,101874.34
2022-12-28T03:03:01.317Z,101887.50
2022-12-28T03:06:34.106Z,101877.53
2022-12-28T03:09:36.879Z,101874.09
2022-12-28T03:26:42.840Z,101888.00
2022-12-28T03:29:33.315Z,101893.66
2022-12-28T03:32:01.211Z,101906.44
2022-12-28T03:34:28.397Z,101912.34
2022-12-28T03:37:07.269Z,101913.75
2022-12-28T03:39:38.876Z,101914.78
2022-12-28T03:42:40.479Z,101895.88
2022-12-28T03:45:45.297Z,101900.97
2022-12-28T03:48:18.556Z,101899.44
2022-12-28T03:50:48.640Z,101902.91
2022-12-28T03:53:20.311Z,101904.97
2022-12-28T03:55:49.427Z,101907.97
2022-12-28T03:58:21.347Z,101913.13
2022-12-28T04:00:49.486Z,101916.13
2022-12-28T04:03:23.899Z,101927.56
2022-12-28T04:05:50.975Z,101929.22
2022-12-28T04:08:17.818Z,101938.44
2022-12-28T04:10:44.732Z,101940.03
2022-12-28T04:13:11.627Z,101944.03
2022-12-28T04:15:58.841Z,101953.66
2022-12-28T04:18:26.861Z,101950.59
2022-12-28T04:20:55.298Z,101950.16
2022-12-28T04:23:22.505Z,101943.78
2022-12-28T04:26:11.768Z,101952.66
2022-12-28T04:28:40.389Z,101959.75
2022-12-28T04:31:26.047Z,101953.84
2022-12-28T04:34:04.159Z,101963.25
2022-12-28T04:36:34.612Z,101969.00
2022-12-28T04:39:02.930Z,101971.81
2022-12-28T04:41:32.558Z,101968.56
2022-12-28T04:43:59.530Z,101976.88
2022-12-28T04:46:26.556Z,101992.59
2022-12-28T04:48:53.634Z,101994.16
2022-12-28T04:51:24.214Z,102001.22
2022-12-28T04:53:51.850Z,102010.56
2022-12-28T04:56:20.287Z,102012.84
2022-12-28T04:58:51.857Z,102016.88
2022-12-28T05:01:19.963Z,102012.66
2022-12-28T05:03:55.096Z,102006.78
2022-12-28T05:06:25.509Z,102014.16
2022-12-28T05:08:52.420Z,102016.72
2022-12-28T05:11:21.766Z,102024.03
2022-12-28T05:13:49.499Z,102017.94
2022-12-28T05:16:21.828Z,102019.19
2022-12-28T05:18:48.933Z,102026.34
2022-12-28T05:21:19.251Z,102019.81
2022-12-28T05:23:46.707Z,102017.94
2022-12-28T05:26:16.358Z,102018.88
2022-12-28T05:28:43.473Z,102014.78
2022-12-28T05:31:13.786Z,102016.88
2022-12-28T05:33:41.621Z,102024.56
2022-12-28T05:36:11.665Z,102028.63
2022-12-28T05:38:39.075Z,102034.09
2022-12-28T05:41:26.239Z,102034.72
2022-12-28T05:43:54.123Z,102043.88
2022-12-28T05:46:26.815Z,102052.75
2022-12-28T05:48:55.426Z,102051.34
2022-12-28T05:51:24.916Z,102051.19
2022-12-28T05:53:51.879Z,102045.09
2022-12-28T05:56:23.829Z,102050.97
2022-12-28T05:59:05.698Z,102062.34
2022-12-28T06:01:35.275Z,102062.69
2022-12-28T06:04:04.793Z,102064.13
2022-12-28T06:06:33.559Z,102069.84
2022-12-28T06:09:01.961Z,102074.16
2022-12-28T06:11:30.069Z,102072.41
2022-12-28T06:13:59.052Z,102065.69
2022-12-28T06:16:31.650Z,102068.97
2022-12-28T06:18:58.897Z,102059.75
2022-12-28T06:21:30.939Z,102063.75
2022-12-28T06:23:59.821Z,102063.75
2022-12-28T06:26:29.621Z,102069.03
2022-12-28T06:28:57.207Z,102069.44
2022-12-28T06:31:29.767Z,102079.91
2022-12-28T06:33:58.991Z,102085.25
2022-12-28T06:36:30.759Z,102082.75
2022-12-28T06:38:59.849Z,102085.31
2022-12-28T06:41:28.154Z,102085.31
2022-12-28T06:43:55.962Z,102088.13
2022-12-28T06:46:25.173Z,102104.19
2022-12-28T06:48:52.337Z,102098.84
2022-12-28T06:51:25.157Z,102103.16
2022-12-28T06:53:53.540Z,102107.50
2022-12-28T06:56:26.458Z,102103.97
2022-12-28T06:59:00.331Z,102114.97
2022-12-28T07:01:40.941Z,102116.09
2022-12-28T07:04:09.722Z,102111.84
2022-12-28T07:06:39.701Z,102107.69
2022-12-28T07:09:10.181Z,102112.91
2022-12-28T07:11:37.594Z,102113.22
2022-12-28T07:14:04.704Z,102115.41
2022-12-28T07:18:59.355Z,102114.25
2022-12-28T07:21:31.533Z,102116.25
2022-12-28T07:23:59.499Z,102116.28
2022-12-28T07:26:29.359Z,102122.81
2022-12-28T07:28:58.252Z,102129.63
2022-12-28T07:31:28.359Z,102123.94
2022-12-28T07:33:56.775Z,102130.94
2022-12-28T07:36:25.279Z,102137.78
2022-12-28T07:38:52.388Z,102135.25
2022-12-28T07:41:22.418Z,102137.31
2022-12-28T07:43:50.032Z,102130.72
2022-12-28T07:46:22.541Z,102130.16
2022-12-28T07:48:50.277Z,102135.09
2022-12-28T07:51:21.883Z,102138.13
2022-12-28T07:53:50.153Z,102130.72
2022-12-28T07:56:18.235Z,102121.13
2022-12-28T07:58:52.253Z,102127.63
2022-12-28T08:01:23.565Z,102135.88
2022-12-28T08:03:55.224Z,102140.59
2022-12-28T08:06:23.558Z,102149.22
2022-12-28T08:08:56.369Z,102147.34
2022-12-28T08:11:25.987Z,102152.94
2022-12-28T08:13:55.255Z,102149.06
2022-12-28T08:16:24.612Z,102151.69
2022-12-28T08:18:51.426Z,102148.75
2022-12-28T08:21:25.056Z,102151.09
2022-12-28T08:23:52.267Z,102153.78
2022-12-28T08:26:22.549Z,102146.41
2022-12-28T08:28:51.675Z,102150.38
2022-12-28T08:31:24.389Z,102151.16
2022-12-28T08:33:53.616Z,102145.41
2022-12-28T08:36:20.946Z,102154.75
2022-12-28T08:38:48.261Z,102147.19
2022-12-28T08:41:17.825Z,102155.31
2022-12-28T08:43:45.863Z,102145.81
2022-12-28T08:46:18.826Z,102143.19
2022-12-28T08:48:48.089Z,102151.50
2022-12-28T08:51:27.035Z,102149.91
2022-12-28T08:53:54.232Z,102152.75
2022-12-28T08:56:27.828Z,102141.88
2022-12-28T08:58:55.878Z,102128.22
2022-12-28T09:01:27.799Z,102136.19
2022-12-28T09:03:57.473Z,102122.56
2022-12-28T09:06:37.207Z,102118.75
2022-12-28T09:09:07.418Z,102124.56
2022-12-28T09:11:38.554Z,102122.31
2022-12-28T09:14:12.031Z,102129.16
2022-12-28T09:16:42.593Z,102123.50
2022-12-28T09:19:13.809Z,102126.50
2022-12-28T09:21:41.777Z,102119.47
2022-12-28T09:24:08.735Z,102128.63
2022-12-28T09:26:37.808Z,102129.72
2022-12-28T09:29:08.806Z,102131.53
2022-12-28T09:31:37.437Z,102130.59
2022-12-28T09:36:53.157Z,102129.31
2022-12-28T09:39:24.699Z,102128.75
2022-12-28T09:41:55.146Z,102130.81
2022-12-28T09:44:40.471Z,102128.84
2022-12-28T09:47:13.236Z,102125.38
2022-12-28T09:50:17.405Z,102115.22
2022-12-28T09:53:08.578Z,102119.59
2022-12-28T09:55:38.424Z,102124.69
2022-12-28T09:58:11.324Z,102117.91
2022-12-28T10:00:48.042Z,102116.25
2022-12-28T10:03:19.942Z,102115.72
2022-12-28T10:05:47.990Z,102122.69
2022-12-28T10:08:19.159Z,102116.06
2022-12-28T10:10:49.035Z,102116.06
2022-12-28T10:16:16.542Z,102097.00
2022-12-28T10:18:43.560Z,102094.47
2022-12-28T10:21:11.593Z,102097.97
2022-12-28T10:23:56.840Z,102103.66
2022-12-28T10:26:26.991Z,102099.78
2022-12-28T10:28:58.401Z,102106.34
2022-12-28T10:31:37.780Z,102104.13
2022-12-28T10:34:24.526Z,102106.31
2022-12-28T10:36:54.469Z,102097.66
2022-12-28T10:39:29.869Z,102094.47
2022-12-28T10:42:00.780Z,102100.88
2022-12-28T10:47:28.555Z,102109.97
2022-12-28T10:50:26.929Z,102099.41
2022-12-28T10:52:42.194Z,102087.88
2022-12-28T10:55:30.348Z,102092.09
2022-12-28T10:58:32.903Z,102076.47
2022-12-28T11:01:25.997Z,102084.06
2022-12-28T11:03:21.192Z,102102.13
2022-12-28T11:03:55.922Z,102090.31
2022-12-28T11:06:31.440Z,102081.34
2022-12-28T11:09:16.557Z,102083.69
2022-12-28T11:11:46.175Z,102082.38
2022-12-28T11:14:36.346Z,102084.38
2022-12-28T11:17:27.749Z,102083.44
2022-12-28T11:20:08.795Z,102090.75
2022-12-28T11:22:35.760Z,102085.22
2022-12-28T11:25:03.114Z,102075.34
2022-12-28T11:27:30.134Z,102072.75
2022-12-28T11:29:57.980Z,102083.16
2022-12-28T11:32:30.037Z,102078.63
2022-12-28T11:34:58.110Z,102084.72
2022-12-28T11:37:25.212Z,102073.78
2022-12-28T11:39:53.219Z,102068.47
2022-12-28T11:42:40.679Z,102065.53
2022-12-28T11:45:16.523Z,102062.56
2022-12-28T11:47:43.505Z,102059.34
2022-12-28T11:50:36.707Z,102067.63
2022-12-28T11:53:19.403Z,102061.19
2022-12-28T11:56:01.437Z,102057.03
2022-12-28T11:58:31.329Z,102064.97
2022-12-28T12:01:00.208Z,102049.53
2022-12-28T12:03:58.475Z,102062.91
2022-12-28T12:06:43.833Z,102060.25
2022-12-28T12:09:26.448Z,102054.44
2022-12-28T12:12:22.795Z,102046.44
2022-12-28T12:14:57.587Z,102038.63
2022-12-28T12:17:42.752Z,102044.56
2022-12-28T12:20:49.033Z,102055.84
2022-12-28T12:23:43.574Z,102050.78
2022-12-28T12:26:28.160Z,102054.56
2022-12-28T12:29:07.883Z,102040.88
2022-12-28T12:31:41.514Z,102044.88
2022-12-28T12:34:24.640Z,102050.28
2022-12-28T12:37:06.672Z,102046.78
2022-12-28T12:39:42.541Z,102055.75
2022-12-28T12:42:44.412Z,102050.34
2022-12-28T12:45:21.958Z,102043.84
2022-12-28T12:47:48.943Z,102050.72
2022-12-28T12:50:33.412Z,102054.16
2022-12-28T12:53:18.814Z,102058.28
2022-12-28T12:56:07.773Z,102055.44
2022-12-28T12:58:57.562Z,102057.03
2022-12-28T13:01:30.122Z,102060.78
2022-12-28T13:04:06.700Z,102066.53
2022-12-28T13:06:36.850Z,102068.69
2022-12-28T13:09:06.572Z,102068.66
2022-12-28T13:11:38.341Z,102076.78
2022-12-28T13:14:06.786Z,102064.47
2022-12-28T13:16:33.870Z,102064.47
2022-12-28T13:19:07.278Z,102061.47
2022-12-28T13:21:46.248Z,102061.19
2022-12-28T13:24:22.146Z,102061.63
2022-12-28T13:26:50.830Z,102063.31
2022-12-28T13:29:21.236Z,102068.22
2022-12-28T13:31:50.010Z,102071.16
2022-12-28T13:34:16.771Z,102072.50
2022-12-28T13:36:50.707Z,102072.75
2022-12-28T13:39:19.623Z,102069.50
2022-12-28T13:42:02.574Z,102076.66
2022-12-28T13:44:38.168Z,102077.50
2022-12-28T13:47:14.060Z,102073.03
2022-12-28T13:49:56.061Z,102068.28
2022-12-28T13:52:46.679Z,102076.28
2022-12-28T13:55:18.451Z,102068.25
2022-12-28T13:57:57.408Z,102069.31
2022-12-28T14:00:27.777Z,102068.97
2022-12-28T14:02:56.940Z,102075.53
2022-12-28T14:05:29.948Z,102068.72
2022-12-28T14:07:59.028Z,102072.25
2022-12-28T14:10:27.329Z,102080.72
2022-12-28T14:12:54.987Z,102075.75
2022-12-28T14:15:22.407Z,102074.41
2022-12-28T14:17:51.619Z,102081.19
2022-12-28T14:20:18.925Z,102074.94
2022-12-28T14:22:46.030Z,102077.78
2022-12-28T14:25:14.498Z,102068.38
2022-12-28T14:28:08.089Z,102068.66
2022-12-28T14:30:41.401Z,102074.88
2022-12-28T14:33:24.737Z,102070.16
2022-12-28T14:35:59.393Z,102070.75
2022-12-28T14:38:33.903Z,102065.97
2022-12-28T14:41:02.523Z,102056.53
2022-12-28T14:43:32.596Z,102059.63
2022-12-28T14:46:31.908Z,102056.22
2022-12-28T14:49:00.368Z,102047.97
2022-12-28T14:51:31.820Z,102061.00
2022-12-28T14:54:19.502Z,102059.38
2022-12-28T14:56:53.687Z,102054.91
2022-12-28T14:59:29.540Z,102065.09
2022-12-28T15:01:56.769Z,102062.50
2022-12-28T15:04:33.990Z,102061.69
2022-12-28T15:07:00.848Z,102062.50
2022-12-28T15:09:27.688Z,102057.19
2022-12-28T15:12:14.653Z,102061.53
2022-12-28T15:14:42.206Z,102071.28
2022-12-28T15:28:19.060Z,102055.75
2022-12-28T15:30:46.099Z,102062.50
2022-12-28T15:33:13.133Z,102065.56
2022-12-28T15:35:40.000Z,102065.72
2022-12-28T15:38:06.921Z,102066.97
2022-12-28T15:40:33.840Z,102061.81
2022-12-28T15:43:00.719Z,102059.38
2022-12-28T15:45:27.597Z,102057.47
2022-12-28T15:47:55.124Z,102061.88
2022-12-28T15:50:22.048Z,102071.25
2022-12-28T15:52:49.147Z,102069.06
2022-12-28T15:55:16.189Z,102071.56
2022-12-28T15:57:44.636Z,102060.72
2022-12-28T16:00:18.778Z,102061.22
2022-12-28T16:02:46.747Z,102071.28
2022-12-28T16:05:14.397Z,102064.00
2022-12-28T16:07:41.274Z,102068.00
2022-12-28T16:10:08.552Z,102065.75
2022-12-28T16:12:35.447Z,102069.00
2022-12-28T16:15:02.381Z,102069.16
2022-12-28T16:17:29.246Z,102068.44
2022-12-28T16:19:56.161Z,102061.91
2022-12-28T16:22:23.361Z,102064.97
2022-12-28T16:24:50.260Z,102064.13
2022-12-28T16:27:17.453Z,102071.19
2022-12-28T16:29:46.199Z,102075.75
2022-12-28T16:32:13.053Z,102069.13
2022-12-28T16:34:40.201Z,102073.91
2022-12-28T16:37:07.399Z,102072.25
2022-12-28T16:39:34.846Z,102080.88
2022-12-28T16:42:01.815Z,102081.88
2022-12-28T16:44:29.510Z,102075.91
2022-12-28T16:47:00.045Z,102074.66
2022-12-28T16:49:27.994Z,102076.75
2022-12-28T16:51:54.931Z,102076.00
2022-12-28T16:54:23.792Z,102079.56
2022-12-28T16:56:52.121Z,102073.78
2022-12-28T16:59:29.448Z,102068.72
2022-12-28T17:01:57.998Z,102069.47
2022-12-28T17:04:24.980Z,102068.22
2022-12-28T17:06:52.137Z,102068.88
2022-12-28T17:09:19.718Z,102074.00
2022-12-28T17:11:48.365Z,102080.72
2022-12-28T17:14:29.227Z,102062.88
2022-12-28T17:17:02.642Z,102070.28
2022-12-28T17:19:29.616Z,102066.03
2022-12-28T17:21:56.469Z,102073.69
2022-12-28T17:24:23.323Z,102071.94
2022-12-28T17:26:50.235Z,102072.53
2022-12-28T17:29:17.322Z,102078.97
2022-12-28T17:31:44.336Z,102074.72
2022-12-28T17:34:11.395Z,102077.56
2022-12-28T17:36:39.070Z,102076.81
2022-12-28T17:39:06.012Z,102075.22
2022-12-28T17:41:33.130Z,102075.84
2022-12-28T17:44:00.743Z,102073.56
2022-12-28T17:46:29.535Z,102075.34
2022-12-28T17:48:58.406Z,102078.59
2022-12-28T17:51:26.700Z,102082.72
2022-12-28T17:53:56.598Z,102082.41
2022-12-28T17:56:23.621Z,102070.19
2022-12-28T17:58:55.766Z,102073.50
2022-12-28T18:01:23.012Z,102073.81
2022-12-28T18:03:50.166Z,102071.41
2022-12-28T18:06:17.221Z,102065.06
2022-12-28T18:08:44.770Z,102070.84
2022-12-28T18:11:11.686Z,102056.03
2022-12-28T18:13:39.803Z,102055.25
2022-12-28T18:16:08.772Z,102059.88
2022-12-28T18:18:35.676Z,102050.06
2022-12-28T18:21:07.776Z,102056.72
2022-12-28T18:23:35.428Z,102059.31
2022-12-28T18:26:02.256Z,102068.03
2022-12-28T18:28:29.630Z,102067.28
2022-12-28T18:31:01.489Z,102062.34
2022-12-28T18:33:29.834Z,102068.19
2022-12-28T18:35:57.078Z,102066.69
2022-12-28T18:38:24.147Z,102060.75
2022-12-28T18:40:52.541Z,102068.97
2022-12-28T18:43:20.142Z,102077.19
2022-12-28T18:45:55.287Z,102074.03
2022-12-28T18:48:26.691Z,102073.25
2022-12-28T18:50:59.816Z,102076.53
2022-12-28T18:53:28.258Z,102069.13
2022-12-28T18:56:00.466Z,102072.69
2022-12-28T18:58:32.742Z,102071.34
2022-12-28T19:01:09.334Z,102069.13
2022-12-28T19:03:43.575Z,102064.47
2022-12-28T19:06:11.028Z,102066.47
2022-12-28T19:08:39.621Z,102064.47
2022-12-28T19:11:08.296Z,102072.19
2022-12-28T19:13:41.292Z,102077.41
2022-12-28T19:16:12.232Z,102066.25
2022-12-28T19:18:39.115Z,102073.03
2022-12-28T19:21:17.712Z,102066.94
2022-12-28T19:23:45.298Z,102075.69
2022-12-28T19:26:12.480Z,102066.19
2022-12-28T19:28:39.346Z,102067.41
2022-12-28T19:31:06.201Z,102068.97
2022-12-28T19:33:33.105Z,102075.34
2022-12-28T19:36:00.153Z,102072.38
2022-12-28T19:38:27.644Z,102072.19
2022-12-28T19:40:55.939Z,102070.16
2022-12-28T19:43:23.490Z,102070.28
2022-12-28T19:45:50.260Z,102074.91
2022-12-28T19:48:17.105Z,102077.47
2022-12-28T19:50:43.891Z,102071.03
2022-12-28T19:53:10.698Z,102060.88
2022-12-28T19:55:37.614Z,102077.81
2022-12-28T19:58:04.467Z,102075.00
2022-12-28T20:00:31.275Z,102073.16
2022-12-28T20:02:58.338Z,102060.41
2022-12-28T20:05:25.991Z,102065.47
2022-12-28T20:07:52.930Z,102061.31
2022-12-28T20:10:19.809Z,102061.47
2022-12-28T20:12:46.673Z,102059.75
2022-12-28T20:15:13.474Z,102062.00
2022-12-28T20:17:42.194Z,102065.81
2022-12-28T20:20:09.226Z,102064.13
2022-12-28T20:22:40.340Z,102060.16
2022-12-28T20:25:07.698Z,102059.81
2022-12-28T20:27:34.769Z,102051.94
2022-12-28T20:30:01.724Z,102051.88
2022-12-28T20:32:28.601Z,102048.03
2022-12-28T20:34:55.668Z,102053.50
2022-12-28T20:37:22.491Z,102051.09
2022-12-28T20:39:49.332Z,102054.97
2022-12-28T20:42:34.689Z,102073.25
2022-12-28T20:45:01.670Z,102062.50
2022-12-28T20:47:28.553Z,102059.50
2022-12-28T20:49:55.540Z,102057.69
2022-12-28T20:52:22.595Z,102055.94
2022-12-28T20:54:49.786Z,102053.16
2022-12-28T20:57:16.691Z,102052.66
2022-12-28T20:59:43.644Z,102051.91
2022-12-28T21:02:10.578Z,102042.47
2022-12-28T21:04:37.594Z,102042.88
2022-12-28T21:07:05.152Z,102036.19
2022-12-28T21:09:32.216Z,102042.31
2022-12-28T21:11:59.086Z,102040.63
2022-12-28T21:14:25.964Z,102037.34
2022-12-28T21:16:52.905Z,102030.94
2022-12-28T21:19:19.975Z,102046.25
2022-12-28T21:21:48.534Z,102040.69
2022-12-28T21:24:15.439Z,102043.06
2022-12-28T21:26:42.313Z,102049.72
2022-12-28T21:29:09.274Z,102045.72
2022-12-28T21:31:36.451Z,102041.53
2022-12-28T21:34:03.602Z,102042.38
2022-12-28T21:36:30.614Z,102039.41
2022-12-28T21:38:57.568Z,102037.97
2022-12-28T21:41:43.196Z,102045.81
2022-12-28T21:44:13.511Z,102046.31
2022-12-28T21:46:41.080Z,102039.78
2022-12-28T21:49:08.113Z,102037.63
2022-12-28T21:51:35.641Z,102041.44
2022-12-28T21:54:15.856Z,102044.41
2022-12-28T21:56:45.008Z,102036.72
2022-12-28T21:59:14.869Z,102033.97
2022-12-28T22:02:17.656Z,102028.88
2022-12-28T22:05:19.632Z,102034.19
2022-12-28T22:07:46.753Z,102038.47
2022-12-28T22:10:32.793Z,102031.25
2022-12-28T22:13:00.006Z,102016.50
2022-12-28T22:15:45.667Z,102015.78
2022-12-28T22:21:07.681Z,102013.56
2022-12-28T22:23:35.219Z,102009.41
2022-12-28T22:26:02.705Z,102005.47
2022-12-28T22:28:29.590Z,102007.63
2022-12-28T22:31:03.477Z,102004.31
2022-12-28T22:33:30.364Z,101993.41
2022-12-28T22:35:57.336Z,101994.47
2022-12-28T22:38:24.144Z,101993.88
2022-12-28T22:41:00.266Z,102002.28
2022-12-28T22:43:27.123Z,101994.59
2022-12-28T22:46:05.510Z,101998.50
2022-12-28T22:48:32.630Z,101998.72
2022-12-28T22:51:07.471Z,101991.84
2022-12-28T22:53:36.541Z,101990.06
2022-12-28T22:56:06.434Z,101983.78
2022-12-28T22:58:34.369Z,101984.16
2022-12-28T23:01:13.090Z,101982.03
2022-12-28T23:03:41.543Z,101980.94
2022-12-28T23:06:10.196Z,101984.38
2022-12-28T23:08:37.232Z,101977.50
2022-12-28T23:11:27.089Z,101977.97
2022-12-28T23:13:54.014Z,101973.22
2022-12-28T23:16:20.987Z,101979.47
2022-12-28T23:19:06.596Z,101973.28
2022-12-28T23:21:51.950Z,101971.16
2022-12-28T23:24:37.477Z,101977.34
2022-12-28T23:27:21.009Z,101981.25
2022-12-28T23:29:48.095Z,101979.00
2022-12-28T23:32:15.034Z,101979.09
2022-12-28T23:34:41.923Z,101971.88
2022-12-28T23:37:08.770Z,101969.38
2022-12-28T23:39:35.791Z,101961.69
2022-12-28T23:42:02.647Z,101960.38
2022-12-28T23:44:29.701Z,101957.28
2022-12-28T23:46:59.248Z,101963.97
2022-12-28T23:49:29.488Z,101964.34
2022-12-28T23:51:56.497Z,101964.78
2022-12-28T23:54:23.423Z,101957.09
2022-12-28T23:56:50.246Z,101964.31
2022-12-28T23:59:17.179Z,101966.19
